Time;durP1;ratioP1;P1;durP2;ratioP2;P2;SDS_P1;SDS_P2;PMS_P1;PMS_P2;Temp;Humidity;BMP_temperature;BMP_pressure;BME280_temperature;BME280_humidity;BME280_pressure;Samples;Min_cycle;Max_cycle;Signal;HPM_P1;HPM_P2
2022/08/27 00:02:13;;;;;;;123.72;42.45;;;;;;;18.93;100.00;100551.16;7396604;19;20018;-72
2022/08/27 00:04:42;;;;;;;123.30;43.22;;;;;;;18.94;100.00;100560.81;7397065;19;20018;-69
2022/08/27 00:07:12;;;;;;;111.03;40.22;;;;;;;18.95;100.00;100557.22;7397543;19;20015;-69
2022/08/27 00:09:42;;;;;;;120.80;42.67;;;;;;;18.97;100.00;100559.78;7396858;19;20039;-69
2022/08/27 00:12:13;;;;;;;127.03;42.53;;;;;;;18.98;100.00;100558.84;7397849;19;20035;-68
2022/08/27 00:14:42;;;;;;;127.72;42.00;;;;;;;18.97;100.00;100558.00;7397007;19;20042;-68
2022/08/27 00:17:10;;;;;;;122.95;40.83;;;;;;;18.97;100.00;100552.69;7398338;19;20031;-68
2022/08/27 00:19:41;;;;;;;125.82;42.20;;;;;;;18.98;100.00;100545.53;7397778;19;20555;-68
2022/08/27 00:22:11;;;;;;;130.07;42.35;;;;;;;18.98;100.00;100546.41;7396832;19;20022;-68
2022/08/27 00:24:40;;;;;;;128.60;43.80;;;;;;;18.98;100.00;100541.09;7396705;19;20021;-69
2022/08/27 00:27:08;;;;;;;124.40;41.28;;;;;;;18.98;100.00;100535.78;7395937;19;20019;-68
2022/08/27 00:29:46;;;;;;;125.75;43.42;;;;;;;18.98;100.00;100532.25;7396127;19;20019;-68
2022/08/27 00:32:21;;;;;;;136.65;41.90;;;;;;;18.96;100.00;100534.19;7395654;19;20019;-68
2022/08/27 00:34:51;;;;;;;126.35;40.92;;;;;;;18.94;100.00;100528.94;7395763;19;20027;-68
2022/08/27 00:37:20;;;;;;;129.23;42.63;;;;;;;18.92;100.00;100522.88;7397373;19;20114;-68
2022/08/27 00:39:49;;;;;;;131.27;42.38;;;;;;;18.91;100.00;100533.59;7397676;19;20022;-68
2022/08/27 00:42:17;;;;;;;128.80;40.70;;;;;;;18.87;100.00;100525.75;7395981;19;20040;-68
2022/08/27 00:44:48;;;;;;;121.00;42.75;;;;;;;18.84;100.00;100538.38;7395426;19;20498;-68
2022/08/27 00:47:21;;;;;;;129.38;42.30;;;;;;;18.80;100.00;100535.03;7395813;19;20015;-68
2022/08/27 00:49:54;;;;;;;127.50;42.30;;;;;;;18.80;100.00;100539.50;7395148;19;20014;-68
2022/08/27 00:52:27;;;;;;;125.60;42.67;;;;;;;18.79;100.00;100538.66;7396994;19;20014;-69
2022/08/27 00:55:01;;;;;;;115.75;42.05;;;;;;;18.77;100.00;100542.38;7395574;19;20022;-69
2022/08/27 00:57:30;;;;;;;;;;;;;;;18.75;100.00;100541.59;7397653;19;20524;-68
2022/08/27 01:00:01;;;;;;;136.88;42.38;;;;;;;18.72;100.00;100535.50;7396548;19;19935;-68
2022/08/27 01:02:30;;;;;;;141.30;42.33;;;;;;;18.72;100.00;100535.50;7395148;19;20011;-68
2022/08/27 01:05:04;;;;;;;141.20;42.70;;;;;;;18.70;100.00;100537.41;7395103;19;20390;-68
2022/08/27 01:07:33;;;;;;;;;;;;;;;18.68;100.00;100539.28;7398120;19;20011;-69
2022/08/27 01:10:03;;;;;;;138.43;41.50;;;;;;;18.65;100.00;100541.28;7396384;19;19915;-68
2022/08/27 01:12:35;;;;;;;127.95;40.22;;;;;;;18.65;100.00;100541.28;7397258;19;20018;-68
2022/08/27 01:15:09;;;;;;;152.27;45.38;;;;;;;18.63;100.00;100549.34;7394511;19;20010;-68
2022/08/27 01:17:39;;;;;;;141.85;40.72;;;;;;;18.63;100.00;100544.03;7394474;19;20537;-68
2022/08/27 01:20:15;;;;;;;148.55;42.20;;;;;;;18.63;100.00;100543.19;7395942;19;20496;-68
2022/08/27 01:22:57;;;;;;;147.60;41.88;;;;;;;18.62;100.00;100547.63;7392999;19;20018;-68
2022/08/27 01:25:29;;;;;;;143.18;43.17;;;;;;;18.63;100.00;100546.69;7396618;19;20018;-68
2022/08/27 01:28:22;;;;;;;150.63;43.30;;;;;;;18.64;100.00;100555.50;7396210;19;20481;-68
2022/08/27 01:30:57;;;;;;;132.20;40.90;;;;;;;18.63;100.00;100554.66;7394798;19;20014;-68
2022/08/27 01:33:33;;;;;;;134.80;42.10;;;;;;;18.64;100.00;100556.38;7395777;19;20014;-68
2022/08/27 01:36:02;;;;;;;133.40;41.33;;;;;;;18.65;100.00;100552.78;7395807;19;20019;-68
2022/08/27 01:38:31;;;;;;;141.40;41.75;;;;;;;18.69;100.00;100559.59;7395322;19;20477;-68
2022/08/27 01:41:03;;;;;;;134.73;40.65;;;;;;;18.70;100.00;100556.00;7395403;19;20019;-68
2022/08/27 01:43:32;;;;;;;129.98;40.50;;;;;;;18.71;100.00;100547.06;7395532;19;20089;-68
2022/08/27 01:46:01;;;;;;;133.25;42.30;;;;;;;18.71;100.00;100552.38;7395522;19;20018;-68
2022/08/27 01:48:30;;;;;;;131.75;41.95;;;;;;;18.71;100.00;100544.41;7395499;19;20022;-68
2022/08/27 01:50:58;;;;;;;126.68;40.80;;;;;;;18.70;100.00;100550.69;7395370;19;20032;-68
2022/08/27 01:53:28;;;;;;;119.95;39.42;;;;;;;18.70;100.00;100544.50;7394230;19;20018;-68
2022/08/27 01:55:57;;;;;;;123.22;40.53;;;;;;;18.68;100.00;100547.25;7395412;19;20031;-67
2022/08/27 01:58:31;;;;;;;123.55;40.78;;;;;;;18.69;100.00;100553.41;7394749;19;20010;-67
2022/08/27 02:01:03;;;;;;;114.80;40.05;;;;;;;18.68;100.00;100549.91;7395481;19;20022;-68
2022/08/27 02:03:35;;;;;;;123.23;40.37;;;;;;;18.66;100.00;100557.13;7394802;19;20044;-67
2022/08/27 02:06:08;;;;;;;131.15;40.88;;;;;;;18.63;100.00;100554.66;7394935;19;20421;-67
2022/08/27 02:08:36;;;;;;;127.65;41.80;;;;;;;18.62;100.00;100549.44;7394554;19;20014;-68
2022/08/27 02:11:07;;;;;;;140.43;43.60;;;;;;;18.59;100.00;100553.13;7394874;19;20418;-69
2022/08/27 02:13:38;;;;;;;144.32;42.63;;;;;;;18.57;100.00;100557.66;7392502;19;20019;-68
2022/08/27 02:16:07;;;;;;;147.60;42.70;;;;;;;18.57;100.00;100557.66;7395183;19;20014;-69
2022/08/27 02:18:38;;;;;;;156.38;44.17;;;;;;;18.55;100.00;100560.41;7394241;19;20015;-68
2022/08/27 02:21:07;;;;;;;144.02;41.00;;;;;;;18.56;100.00;100558.59;7394899;19;20011;-68
2022/08/27 02:23:36;;;;;;;144.13;41.90;;;;;;;18.54;100.00;100556.03;7393351;19;20014;-68
2022/08/27 02:26:04;;;;;;;151.23;43.10;;;;;;;18.53;100.00;100551.66;7393938;19;20021;-68
2022/08/27 02:28:33;;;;;;;145.65;42.20;;;;;;;18.54;100.00;100560.50;7394241;19;20087;-67
2022/08/27 02:31:04;;;;;;;157.43;43.15;;;;;;;18.54;100.00;100555.19;7392308;19;20007;-68
2022/08/27 02:33:33;;;;;;;144.98;43.40;;;;;;;18.53;100.00;100558.78;7394401;19;20033;-68
2022/08/27 02:36:01;;;;;;;155.13;42.05;;;;;;;18.53;100.00;100558.78;7398511;19;20011;-68
2022/08/27 02:38:30;;;;;;;149.50;42.45;;;;;;;18.53;100.00;100561.44;7399509;19;20018;-67
2022/08/27 02:40:58;;;;;;;144.85;43.88;;;;;;;18.54;100.00;100560.50;7401492;19;20043;-68
2022/08/27 02:43:27;;;;;;;153.43;44.28;;;;;;;18.55;100.00;100557.75;7397977;19;20018;-68
2022/08/27 02:45:56;;;;;;;145.13;43.95;;;;;;;18.53;100.00;100553.47;7401464;19;20022;-68
2022/08/27 02:48:27;;;;;;;144.60;43.80;;;;;;;18.55;100.00;100562.19;7399268;19;20018;-68
2022/08/27 02:50:56;;;;;;;132.13;44.03;;;;;;;18.55;100.00;100572.81;7398094;19;20514;-68
2022/08/27 02:53:25;;;;;;;128.18;43.08;;;;;;;18.54;100.00;100561.34;7399261;19;20086;-68
2022/08/27 02:55:54;;;;;;;128.23;42.58;;;;;;;18.57;100.00;100568.28;7400769;19;20014;-68
2022/08/27 02:58:22;;;;;;;144.02;44.90;;;;;;;18.56;100.00;100562.13;7401004;19;20086;-68
2022/08/27 03:00:51;;;;;;;135.27;42.72;;;;;;;18.56;100.00;100563.91;7400952;19;20023;-68
2022/08/27 03:03:20;;;;;;;144.73;43.13;;;;;;;18.56;100.00;100563.91;7398584;19;20019;-68
2022/08/27 03:05:51;;;;;;;164.10;45.65;;;;;;;18.55;100.00;100570.16;7397965;19;20018;-70
2022/08/27 03:08:20;;;;;;;149.65;45.47;;;;;;;18.55;100.00;100564.84;7401150;19;20022;-68
2022/08/27 03:10:49;;;;;;;148.77;45.38;;;;;;;18.56;100.00;100562.13;7398052;19;20018;-68
2022/08/27 03:13:17;;;;;;;145.45;45.25;;;;;;;18.55;100.00;100559.53;7398246;19;20011;-68
2022/08/27 03:15:46;;;;;;;152.48;47.10;;;;;;;18.56;100.00;100555.94;7397909;19;20018;-68
2022/08/27 03:18:18;;;;;;;148.82;45.15;;;;;;;18.56;100.00;100558.59;7400457;19;20108;-68
2022/08/27 03:20:52;;;;;;;139.45;45.30;;;;;;;18.55;100.00;100563.06;7400458;19;20007;-69
2022/08/27 03:23:24;;;;;;;138.77;46.25;;;;;;;18.53;100.00;100558.78;7398063;19;20022;-68
2022/08/27 03:25:55;;;;;;;134.20;47.47;;;;;;;18.52;100.00;100557.06;7399795;19;20110;-68
2022/08/27 03:28:26;;;;;;;131.35;44.05;;;;;;;18.53;100.00;100554.31;7400413;19;20035;-68
2022/08/27 03:30:59;;;;;;;136.82;44.75;;;;;;;18.55;100.00;100551.56;7397095;19;20014;-69
2022/08/27 03:33:28;;;;;;;129.43;43.85;;;;;;;18.56;100.00;100554.16;7398823;19;20458;-69
2022/08/27 03:35:59;;;;;;;122.57;44.60;;;;;;;18.59;100.00;100554.91;7399300;19;20018;-68
2022/08/27 03:38:28;;;;;;;122.85;43.63;;;;;;;18.59;100.00;100545.16;7397603;19;20022;-68
2022/08/27 03:40:57;;;;;;;117.95;42.80;;;;;;;18.58;100.00;100546.09;7399120;19;20015;-68
2022/08/27 03:43:26;;;;;;;113.30;42.42;;;;;;;18.59;100.00;100547.81;7396940;19;20018;-68
2022/08/27 03:45:55;;;;;;;108.03;41.13;;;;;;;18.57;100.00;100555.00;7397993;19;20027;-68
2022/08/27 03:48:24;;;;;;;119.30;43.67;;;;;;;18.56;100.00;100551.50;7398995;19;20019;-68
2022/08/27 03:50:52;;;;;;;111.38;42.20;;;;;;;18.58;100.00;100546.09;7396604;19;20027;-68
2022/08/27 03:53:24;;;;;;;105.40;40.72;;;;;;;18.59;100.00;100546.94;7398702;19;20032;-69
2022/08/27 03:55:53;;;;;;;103.65;42.13;;;;;;;18.60;100.00;100559.28;7398964;19;20031;-68
2022/08/27 03:58:21;;;;;;;112.82;43.00;;;;;;;18.60;100.00;100548.66;7398705;19;20541;-68
2022/08/27 04:00:50;;;;;;;97.10;40.03;;;;;;;18.60;100.00;100549.50;7399407;19;20022;-68
2022/08/27 04:03:18;;;;;;;94.50;39.40;;;;;;;18.57;100.00;100555.00;7397173;19;20014;-68
2022/08/27 04:05:47;;;;;;;93.45;39.45;;;;;;;18.56;100.00;100554.16;7398854;19;20116;-68
2022/08/27 04:08:16;;;;;;;88.22;40.63;;;;;;;18.56;100.00;100553.28;7396254;19;20007;-67
2022/08/27 04:10:47;;;;;;;91.47;38.42;;;;;;;18.56;100.00;100545.31;7398663;19;20028;-68
2022/08/27 04:13:16;;;;;;;89.97;39.75;;;;;;;18.55;100.00;100549.78;7397975;19;20355;-68
2022/08/27 04:15:46;;;;;;;77.55;37.88;;;;;;;18.55;100.00;100560.41;7398420;19;20025;-68
2022/08/27 04:18:15;;;;;;;83.13;37.42;;;;;;;18.54;100.00;100552.53;7396107;19;20030;-68
2022/08/27 04:20:44;;;;;;;83.72;38.13;;;;;;;18.54;100.00;100555.19;7398312;19;20018;-68
2022/08/27 04:23:13;;;;;;;82.63;38.67;;;;;;;18.55;100.00;100556.88;7395751;19;20064;-68
2022/08/27 04:25:42;;;;;;;82.90;37.03;;;;;;;18.55;100.00;100555.09;7398086;19;20039;-68
2022/08/27 04:28:15;;;;;;;80.57;37.83;;;;;;;18.58;100.00;100556.72;7397429;19;20017;-68
2022/08/27 04:30:45;;;;;;;92.63;40.10;;;;;;;18.60;100.00;100554.81;7395018;19;20014;-68
2022/08/27 04:33:15;;;;;;;76.28;36.72;;;;;;;18.63;100.00;100564.44;7397571;19;20078;-68
2022/08/27 04:35:44;;;;;;;89.03;39.10;;;;;;;18.65;100.00;100565.19;7397751;19;20015;-68
2022/08/27 04:38:13;;;;;;;78.75;37.90;;;;;;;18.66;100.00;100570.41;7397572;19;20035;-68
2022/08/27 04:43:26;;;;;;;92.80;39.10;;;;;;;18.69;100.00;100574.69;7396710;19;20006;-68
2022/08/27 04:45:55;;;;;;;85.65;38.80;;;;;;;18.69;100.00;100578.22;7397114;19;20378;-68
2022/08/27 04:48:24;;;;;;;86.45;37.92;;;;;;;18.70;100.00;100577.28;7397029;19;20028;-68
2022/08/27 04:50:53;;;;;;;81.38;37.30;;;;;;;18.69;100.00;100567.59;7395449;19;20018;-68
2022/08/27 04:53:21;;;;;;;80.57;37.08;;;;;;;18.68;100.00;100573.00;7396710;19;20022;-68
2022/08/27 04:55:52;;;;;;;87.30;37.08;;;;;;;18.69;100.00;100574.69;7397174;19;20018;-68
2022/08/27 04:58:22;;;;;;;89.25;39.75;;;;;;;18.69;100.00;100566.72;7394996;19;20018;-68
2022/08/27 05:00:58;;;;;;;77.90;37.20;;;;;;;18.70;100.00;100571.94;7396781;19;20427;-68
2022/08/27 05:03:27;;;;;;;72.90;36.40;;;;;;;18.68;100.00;100568.53;7395981;19;20031;-68
2022/08/27 05:06:02;;;;;;;85.72;37.35;;;;;;;18.66;100.00;100573.06;7396564;19;20029;-68
2022/08/27 05:08:31;;;;;;;89.95;38.75;;;;;;;18.64;100.00;100572.31;7394502;19;20027;-68
2022/08/27 05:11:00;;;;;;;78.88;36.33;;;;;;;18.63;100.00;100565.28;7395025;19;20481;-69
2022/08/27 05:13:30;;;;;;;83.95;37.65;;;;;;;18.61;100.00;100561.84;7395935;19;20078;-69
2022/08/27 05:16:07;;;;;;;83.53;36.03;;;;;;;18.60;100.00;100565.44;7396098;19;20576;-68
2022/08/27 05:18:37;;;;;;;83.18;36.75;;;;;;;18.60;100.00;100562.78;7396673;19;20031;-68
2022/08/27 05:21:06;;;;;;;80.05;36.97;;;;;;;18.58;100.00;100556.72;7394570;19;20035;-68
2022/08/27 05:23:36;;;;;;;77.00;35.20;;;;;;;18.59;100.00;100558.44;7394578;19;20431;-68
2022/08/27 05:26:05;;;;;;;78.50;35.38;;;;;;;18.59;100.00;100558.44;7395777;19;20019;-68
2022/08/27 05:28:33;;;;;;;84.95;36.78;;;;;;;18.59;100.00;100558.44;7395767;19;20031;-68
2022/08/27 05:31:15;;;;;;;86.60;37.25;;;;;;;18.58;100.00;100554.06;7394552;19;20106;-68
2022/08/27 05:33:50;;;;;;;81.78;35.40;;;;;;;18.54;100.00;100556.03;7394605;19;20018;-68
2022/08/27 05:36:21;;;;;;;88.05;36.10;;;;;;;18.54;100.00;100555.19;7395612;19;20022;-68
2022/08/27 05:38:51;;;;;;;79.80;35.53;;;;;;;18.54;100.00;100556.03;7395081;19;20014;-69
2022/08/27 05:41:23;;;;;;;85.40;35.78;;;;;;;18.55;100.00;100560.41;7395705;19;20015;-68
2022/08/27 05:43:52;;;;;;;82.57;35.58;;;;;;;18.55;100.00;100556.88;7394571;19;20022;-68
2022/08/27 05:46:25;;;;;;;85.47;35.17;;;;;;;18.54;100.00;100555.19;7395431;19;20074;-69
2022/08/27 05:48:54;;;;;;;74.88;33.70;;;;;;;18.53;100.00;100558.78;7395550;19;20014;-68
2022/08/27 05:51:27;;;;;;;81.13;34.65;;;;;;;18.55;100.00;100564.84;7395947;19;20041;-68
2022/08/27 05:54:00;;;;;;;76.13;33.15;;;;;;;18.55;100.00;100565.72;7394169;19;20031;-69
2022/08/27 05:56:31;;;;;;;70.57;32.05;;;;;;;18.55;100.00;100563.06;7393340;19;20481;-68
2022/08/27 06:01:45;;;;;;;78.10;32.50;;;;;;;18.60;100.00;100570.75;7395180;19;20019;-68
2022/08/27 06:04:15;;;;;;;80.30;34.42;;;;;;;18.61;100.00;100571.63;7393218;19;20018;-69
2022/08/27 06:06:45;;;;;;;70.90;31.05;;;;;;;18.60;100.00;100581.38;7394587;19;20381;-68
2022/08/27 06:09:17;;;;;;;70.97;31.80;;;;;;;18.60;100.00;100575.22;7397910;19;20026;-68
2022/08/27 06:11:46;;;;;;;82.60;31.75;;;;;;;18.60;100.00;100576.06;7403047;19;20039;-68
2022/08/27 06:14:15;;;;;;;75.63;32.38;;;;;;;18.59;100.00;100573.50;7398965;19;20380;-69
2022/08/27 06:16:47;;;;;;;88.40;34.05;;;;;;;18.56;100.00;100570.09;7401982;19;20507;-68
2022/08/27 06:19:16;;;;;;;77.85;33.50;;;;;;;18.54;100.00;100579.09;7399792;19;20042;-68
2022/08/27 06:21:45;;;;;;;83.25;33.20;;;;;;;18.55;100.00;100580.78;7398885;19;20024;-69
2022/08/27 06:24:14;;;;;;;75.85;32.42;;;;;;;18.55;100.00;100578.13;7398872;19;20019;-68
2022/08/27 06:26:44;;;;;;;84.85;34.47;;;;;;;18.56;100.00;100569.22;7402001;19;20035;-69
2022/08/27 06:29:14;;;;;;;81.53;36.25;;;;;;;18.58;100.00;100583.28;7401755;19;20026;-69
2022/08/27 06:31:45;;;;;;;83.65;33.60;;;;;;;18.58;100.00;100577.97;7399481;19;20024;-69
2022/08/27 06:34:14;;;;;;;79.97;31.85;;;;;;;18.60;100.00;100589.34;7399977;19;20025;-69
2022/08/27 06:36:44;;;;;;;90.70;34.05;;;;;;;18.61;100.00;100584.91;7398568;19;20014;-68
2022/08/27 06:39:14;;;;;;;86.53;34.35;;;;;;;18.59;100.00;100585.00;7401459;19;20019;-68
2022/08/27 06:41:43;;;;;;;82.55;32.97;;;;;;;18.61;100.00;100591.06;7401080;19;20074;-68
2022/08/27 06:44:12;;;;;;;74.90;32.03;;;;;;;18.61;100.00;100587.56;7398116;19;20038;-68
2022/08/27 06:46:42;;;;;;;82.65;33.78;;;;;;;18.62;100.00;100584.81;7398011;19;20493;-68
2022/08/27 06:49:13;;;;;;;84.55;33.03;;;;;;;18.66;100.00;100586.34;7400891;19;20031;-68
2022/08/27 06:51:46;;;;;;;79.00;33.35;;;;;;;18.66;100.00;100594.31;7401956;19;20019;-67
2022/08/27 06:54:18;;;;;;;75.97;32.22;;;;;;;18.66;100.00;100586.34;7399854;19;20082;-68
2022/08/27 06:56:48;;;;;;;77.07;31.50;;;;;;;18.69;100.00;100594.16;7399166;19;20023;-68
2022/08/27 06:59:19;;;;;;;66.70;29.95;;;;;;;18.72;100.00;100599.28;7400472;19;20010;-64
2022/08/27 07:01:50;;;;;;;65.68;29.80;;;;;;;18.72;100.00;100599.28;7398230;19;20015;-64
2022/08/27 07:04:24;;;;;;;65.82;29.20;;;;;;;18.75;100.00;100602.72;7398196;19;20025;-64
2022/08/27 07:06:53;;;;;;;51.53;26.67;;;;;;;18.73;100.00;100603.66;7400412;19;20423;-63
2022/08/27 07:09:23;;;;;;;66.22;27.98;;;;;;;18.76;100.00;100604.44;7400280;19;20481;-64
2022/08/27 07:11:52;;;;;;;54.00;27.58;;;;;;;18.77;100.00;100608.81;7400903;19;20021;-64
2022/08/27 07:14:20;;;;;;;53.40;27.77;;;;;;;18.79;100.00;100613.09;7397671;19;20019;-64
2022/08/27 07:16:50;;;;;;;48.78;26.42;;;;;;;18.81;100.00;100615.63;7397230;19;20498;-64
2022/08/27 07:19:21;;;;;;;46.80;26.73;;;;;;;18.83;100.00;100617.25;7400352;19;20014;-65
2022/08/27 07:21:50;;;;;;;49.65;26.33;;;;;;;18.85;100.00;100618.00;7398473;19;20031;-64
2022/08/27 07:24:19;;;;;;;47.67;26.48;;;;;;;18.86;100.00;100624.19;7397092;19;20019;-64
2022/08/27 07:26:47;;;;;;;42.60;25.67;;;;;;;18.89;100.00;100626.66;7399848;19;20023;-64
2022/08/27 07:29:16;;;;;;;45.25;25.48;;;;;;;18.92;100.00;100625.66;7399870;19;20028;-64
2022/08/27 07:31:45;;;;;;;40.42;26.00;;;;;;;18.94;100.00;100624.63;7397872;19;20023;-64
2022/08/27 07:34:14;;;;;;;39.33;23.25;;;;;;;18.94;100.00;100627.28;7397882;19;20026;-64
2022/08/27 07:36:45;;;;;;;37.05;25.10;;;;;;;18.93;100.00;100625.59;7396707;19;20064;-64
2022/08/27 07:39:15;;;;;;;40.25;25.13;;;;;;;18.97;100.00;100629.78;7397029;19;20019;-66
2022/08/27 07:44:28;;;;;;;40.40;24.48;;;;;;;19.01;100.00;100625.97;7396002;19;20414;-64
2022/08/27 07:46:57;;;;;;;38.70;25.27;;;;;;;19.04;100.00;100624.94;7398372;19;20014;-64
2022/08/27 07:49:26;;;;;;;30.88;22.50;;;;;;;19.04;100.00;100628.47;7396242;19;20011;-63
2022/08/27 07:51:57;;;;;;;33.97;22.50;;;;;;;19.03;100.00;100621.44;7398737;19;20018;-64
2022/08/27 07:54:26;;;;;;;33.72;21.70;;;;;;;19.05;100.00;100624.84;7397966;19;20022;-63
2022/08/27 07:56:55;;;;;;;39.95;23.85;;;;;;;19.07;100.00;100624.78;7396482;19;20011;-64
2022/08/27 07:59:23;;;;;;;33.28;21.70;;;;;;;19.11;100.00;100633.41;7398751;19;20022;-63
2022/08/27 08:01:52;;;;;;;30.45;22.25;;;;;;;19.11;100.00;100628.09;7396153;19;20023;-64
2022/08/27 08:04:21;;;;;;;29.00;21.42;;;;;;;19.13;100.00;100631.53;7397115;19;20019;-64
2022/08/27 08:06:50;;;;;;;32.05;21.27;;;;;;;19.14;100.00;100628.75;7398679;19;20094;-64
2022/08/27 08:09:22;;;;;;;31.65;21.95;;;;;;;19.19;100.00;100633.81;7398514;19;20025;-63
2022/08/27 08:11:51;;;;;;;30.67;21.63;;;;;;;19.24;100.00;100626.41;7398055;19;20018;-64
2022/08/27 08:14:21;;;;;;;26.92;20.85;;;;;;;19.31;100.00;100630.44;7395856;19;20039;-63
2022/08/27 08:16:49;;;;;;;29.05;21.15;;;;;;;19.39;100.00;100632.63;7398019;19;20018;-67
2022/08/27 08:19:18;;;;;;;26.92;20.92;;;;;;;19.42;100.00;100623.59;7395909;19;20015;-68
2022/08/27 08:21:46;;;;;;;24.73;18.63;;;;;;;19.47;100.00;100632.16;7398024;19;20011;-67
2022/08/27 08:24:15;;;;;;;21.85;17.15;;;;;;;19.49;100.00;100627.59;7396199;19;20026;-67
2022/08/27 08:26:46;;;;;;;23.80;18.95;;;;;;;19.52;100.00;100625.63;7397605;19;20094;-67
2022/08/27 08:29:15;;;;;;;23.85;18.33;;;;;;;19.59;100.00;100628.75;7395461;19;20408;-67
2022/08/27 08:31:43;;;;;;;23.08;17.77;;;;;;;19.63;100.00;100634.75;7395049;19;20346;-67
2022/08/27 08:34:12;;;;;;;23.73;18.45;;;;;;;19.67;100.00;100626.44;7395755;19;20035;-68
2022/08/27 08:36:41;;;;;;;24.13;18.48;;;;;;;19.74;100.00;100631.38;7396691;19;20023;-67
2022/08/27 08:39:09;;;;;;;19.25;16.55;;;;;;;19.77;100.00;100625.91;7394657;19;20014;-67
2022/08/27 08:41:42;;;;;;;20.95;16.27;;;;;;;19.78;100.00;100633.78;7397226;19;20018;-67
2022/08/27 08:44:21;;;;;;;19.70;17.63;;;;;;;19.83;100.00;100626.38;7394686;19;20517;-66
2022/08/27 08:46:54;;;;;;;17.90;16.00;;;;;;;19.90;100.00;100628.66;7396607;19;20031;-67
2022/08/27 08:49:33;;;;;;;17.77;15.88;;;;;;;19.96;100.00;100629.13;7395308;19;20018;-67
2022/08/27 08:52:12;;;;;;;17.85;15.82;;;;;;;20.05;100.00;100630.34;7397161;19;20018;-66
2022/08/27 08:54:43;;;;;;;18.73;16.73;;;;;;;20.14;100.00;100623.59;7394575;19;20423;-69
2022/08/27 08:57:21;;;;;;;20.60;16.23;;;;;;;20.17;100.00;100628.75;7394621;19;20374;-70
2022/08/27 09:00:00;;;;;;;16.27;14.52;;;;;;;20.20;100.00;100615.22;7397133;19;20023;-69
2022/08/27 09:02:29;;;;;;;17.30;14.93;;;;;;;20.19;100.00;100618.81;7396021;19;20389;-69
2022/08/27 09:05:00;;;;;;;18.52;15.68;;;;;;;20.16;100.00;100611.03;7394571;19;20035;-69
2022/08/27 09:07:37;;;;;;;18.95;16.88;;;;;;;20.20;100.00;100607.22;7395944;19;20112;-69
2022/08/27 09:10:15;;;;;;;18.60;16.13;;;;;;;20.22;100.00;100612.44;7396665;19;20014;-70
2022/08/27 09:12:44;;;;;;;16.52;14.63;;;;;;;20.26;100.00;100616.66;7396296;19;20375;-69
2022/08/27 09:15:18;;;;;;;16.95;15.32;;;;;;;20.24;100.00;100623.88;7394163;19;20035;-70
2022/08/27 09:17:49;;;;;;;16.55;14.65;;;;;;;20.22;100.00;100618.66;7396343;19;20362;-71
2022/08/27 09:20:21;;;;;;;17.98;15.13;;;;;;;20.20;100.00;100625.88;7395208;19;20092;-69
2022/08/27 09:22:58;;;;;;;17.95;15.38;;;;;;;20.21;100.00;100614.25;7394981;19;20514;-69
2022/08/27 09:25:30;;;;;;;16.63;14.95;;;;;;;20.25;100.00;100625.59;7393483;19;20027;-69
2022/08/27 09:28:01;;;;;;;19.17;15.75;;;;;;;20.25;100.00;100634.41;7395432;19;20509;-69
2022/08/27 09:30:42;;;;;;;17.23;15.43;;;;;;;20.28;100.00;100626.25;7395317;19;20068;-68
2022/08/27 09:33:11;;;;;;;20.55;15.65;;;;;;;20.37;100.00;100632.75;7395351;19;20039;-68
2022/08/27 09:35:43;;;;;;;19.48;16.83;;;;;;;20.48;100.00;100634.72;7395109;19;20494;-68
2022/08/27 09:38:13;;;;;;;22.23;14.98;;;;;;;20.51;100.00;100630.06;7394890;19;20489;-68
2022/08/27 09:40:45;;;;;;;15.68;13.95;;;;;;;20.52;99.95;100628.25;7394838;19;20018;-69
2022/08/27 09:43:23;;;;;;;20.45;13.90;;;;;;;20.55;99.23;100616.53;7393870;19;20026;-69
2022/08/27 09:45:56;;;;;;;18.58;14.95;;;;;;;20.55;99.92;100617.41;7393676;19;20078;-69
2022/08/27 09:48:34;;;;;;;15.90;14.25;;;;;;;20.56;99.15;100619.13;7395224;19;20014;-69
2022/08/27 09:51:04;;;;;;;15.18;13.15;;;;;;;20.59;99.26;100624.22;7392451;19;20116;-69
2022/08/27 09:53:39;;;;;;;17.20;13.38;;;;;;;20.62;99.82;100640.00;7394404;19;20031;-68
2022/08/27 09:56:10;;;;;;;14.38;12.98;;;;;;;20.65;99.87;100633.66;7395578;19;20028;-68
2022/08/27 09:58:51;;;;;;;14.98;13.27;;;;;;;20.64;98.06;100643.44;7395036;19;20032;-69
2022/08/27 10:01:25;;;;;;;15.32;12.40;;;;;;;20.60;96.98;100638.41;7394739;19;20018;-70
2022/08/27 10:04:06;;;;;;;13.45;12.05;;;;;;;20.64;98.85;100650.59;7393536;19;20018;-69
2022/08/27 10:06:34;;;;;;;12.70;10.95;;;;;;;20.72;99.05;100637.63;7394795;19;20022;-69
2022/08/27 10:09:10;;;;;;;14.73;11.90;;;;;;;20.83;99.25;100648.44;7394637;19;20031;-69
2022/08/27 10:11:46;;;;;;;12.30;11.10;;;;;;;20.95;98.17;100645.91;7393125;19;20140;-70
2022/08/27 10:14:20;;;;;;;12.57;11.23;;;;;;;21.03;97.68;100645.38;7393600;19;20019;-70
2022/08/27 10:17:05;;;;;;;11.57;10.40;;;;;;;21.06;95.50;100642.53;7394382;19;20075;-71
2022/08/27 10:20:00;;;;;;;13.23;11.70;;;;;;;21.09;95.77;100647.63;7392331;19;20014;-69
2022/08/27 10:22:40;;;;;;;12.85;11.48;;;;;;;21.10;95.93;100642.19;7395275;19;20028;-70
2022/08/27 10:25:24;;;;;;;12.60;11.18;;;;;;;21.08;94.15;100643.25;7392536;19;20018;-70
2022/08/27 10:28:03;;;;;;;16.02;12.73;;;;;;;21.04;94.55;100647.97;7393838;19;20078;-70
2022/08/27 10:30:47;;;;;;;13.30;11.75;;;;;;;21.04;96.29;100644.44;7394068;19;20046;-70
2022/08/27 10:33:25;;;;;;;13.73;12.32;;;;;;;21.04;95.42;100652.44;7391670;19;20023;-70
2022/08/27 10:36:08;;;;;;;14.38;12.70;;;;;;;21.01;96.01;100647.31;7393482;19;20099;-71
2022/08/27 10:38:41;;;;;;;17.05;12.50;;;;;;;20.99;95.63;100648.28;7392903;19;20018;-71
2022/08/27 10:41:18;;;;;;;17.58;12.65;;;;;;;21.01;96.32;100658.00;7393539;19;20027;-70
2022/08/27 10:44:10;;;;;;;13.40;11.32;;;;;;;20.98;94.26;100664.38;7392376;19;20011;-70
2022/08/27 10:46:58;;;;;;;13.63;11.45;;;;;;;20.96;95.19;100659.13;7393614;19;20014;-69
2022/08/27 10:49:39;;;;;;;14.35;11.75;;;;;;;20.97;95.03;100662.66;7393386;19;20074;-69
2022/08/27 10:52:16;;;;;;;13.88;11.27;;;;;;;20.99;94.96;100669.59;7393569;19;20363;-69
2022/08/27 10:54:52;;;;;;;16.48;11.30;;;;;;;21.02;94.64;100659.69;7392439;19;20486;-69
2022/08/27 10:57:28;;;;;;;14.68;11.23;;;;;;;21.05;94.44;100662.16;7401346;19;20014;-68
2022/08/27 11:00:04;;;;;;;11.65;10.45;;;;;;;21.10;94.38;100668.03;7401315;19;20090;-69
2022/08/27 11:02:38;;;;;;;19.17;12.10;;;;;;;21.09;93.72;100664.53;7398532;19;20029;-74
2022/08/27 11:05:18;;;;;;;13.73;10.98;;;;;;;21.12;93.97;100671.47;7398089;19;20018;-70
2022/08/27 11:07:51;;;;;;;15.07;12.10;;;;;;;21.13;94.19;100670.50;7398655;19;20036;-69
2022/08/27 11:10:24;;;;;;;15.93;12.68;;;;;;;21.12;93.39;100674.13;7397423;19;20070;-69
2022/08/27 11:12:57;;;;;;;14.57;12.18;;;;;;;21.08;93.50;100670.81;7400693;19;20085;-71
2022/08/27 11:15:30;;;;;;;17.85;13.38;;;;;;;21.04;93.71;100677.31;7400816;19;20026;-69
2022/08/27 11:18:06;;;;;;;16.23;12.90;;;;;;;21.01;94.13;100676.66;7400716;19;20011;-70
2022/08/27 11:20:46;;;;;;;18.92;13.02;;;;;;;20.99;94.21;100671.41;7400564;19;20025;-70
2022/08/27 11:23:18;;;;;;;15.13;12.15;;;;;;;20.97;94.80;100676.84;7399029;19;20025;-70
2022/08/27 11:25:53;;;;;;;13.75;11.60;;;;;;;20.95;94.79;100676.09;7397373;19;20027;-70
2022/08/27 11:28:24;;;;;;;14.55;11.82;;;;;;;20.97;94.19;100676.00;7400243;19;20019;-71
2022/08/27 11:31:01;;;;;;;15.63;12.10;;;;;;;20.94;94.37;100669.06;7399932;19;20014;-70